sensor_id;sensor_type;location;lat;lon;timestamp;temperature;humidity
36660;DHT22;22654;51.054;3.654;2023-04-03T00:01:12;1.60;99.90
36660;DHT22;22654;51.054;3.654;2023-04-03T00:03:38;1.50;99.90
36660;DHT22;22654;51.054;3.654;2023-04-03T00:06:05;1.40;99.90
36660;DHT22;22654;51.054;3.654;2023-04-03T00:08:34;1.40;99.90
36660;DHT22;22654;51.054;3.654;2023-04-03T00:11:00;1.30;99.90
36660;DHT22;22654;51.054;3.654;2023-04-03T00:13:26;1.30;99.90
36660;DHT22;22654;51.054;3.654;2023-04-03T00:15:52;1.20;99.90
36660;DHT22;22654;51.054;3.654;2023-04-03T00:18:18;1.30;99.90
36660;DHT22;22654;51.054;3.654;2023-04-03T00:20:44;1.40;99.90
36660;DHT22;22654;51.054;3.654;2023-04-03T00:23:10;1.30;99.90
36660;DHT22;22654;51.054;3.654;2023-04-03T00:25:36;1.30;99.90
36660;DHT22;22654;51.054;3.654;2023-04-03T00:28:02;1.50;99.90
36660;DHT22;22654;51.054;3.654;2023-04-03T00:30:28;1.80;99.90
36660;DHT22;22654;51.054;3.654;2023-04-03T00:32:54;2.00;99.90
36660;DHT22;22654;51.054;3.654;2023-04-03T00:35:20;2.00;99.90
36660;DHT22;22654;51.054;3.654;2023-04-03T00:37:46;1.80;99.90
36660;DHT22;22654;51.054;3.654;2023-04-03T00:40:13;1.50;99.90
36660;DHT22;22654;51.054;3.654;2023-04-03T00:42:40;1.30;99.90
36660;DHT22;22654;51.054;3.654;2023-04-03T00:47:31;1.10;99.90
36660;DHT22;22654;51.054;3.654;2023-04-03T00:50:00;1.20;99.90
36660;DHT22;22654;51.054;3.654;2023-04-03T00:52:28;1.30;99.90
36660;DHT22;22654;51.054;3.654;2023-04-03T00:54:56;1.50;99.90
36660;DHT22;22654;51.054;3.654;2023-04-03T00:57:29;1.50;99.90
36660;DHT22;22654;51.054;3.654;2023-04-03T01:00:02;1.40;99.90
36660;DHT22;22654;51.054;3.654;2023-04-03T01:02:29;1.80;99.90
36660;DHT22;22654;51.054;3.654;2023-04-03T01:04:55;1.90;99.90
36660;DHT22;22654;51.054;3.654;2023-04-03T01:07:22;2.10;99.90
36660;DHT22;22654;51.054;3.654;2023-04-03T01:09:49;2.20;99.90
36660;DHT22;22654;51.054;3.654;2023-04-03T01:14:53;2.10;99.90
36660;DHT22;22654;51.054;3.654;2023-04-03T01:17:31;2.10;99.90
36660;DHT22;22654;51.054;3.654;2023-04-03T01:22:44;1.80;99.90
36660;DHT22;22654;51.054;3.654;2023-04-03T01:25:14;2.20;99.90
36660;DHT22;22654;51.054;3.654;2023-04-03T01:27:40;2.10;99.90
36660;DHT22;22654;51.054;3.654;2023-04-03T01:30:06;2.20;99.90
36660;DHT22;22654;51.054;3.654;2023-04-03T01:32:32;2.20;99.90
36660;DHT22;22654;51.054;3.654;2023-04-03T01:34:58;2.10;99.90
36660;DHT22;22654;51.054;3.654;2023-04-03T01:37:24;1.70;99.90
36660;DHT22;22654;51.054;3.654;2023-04-03T01:39:49;1.50;99.90
36660;DHT22;22654;51.054;3.654;2023-04-03T01:42:15;1.40;99.90
36660;DHT22;22654;51.054;3.654;2023-04-03T01:44:43;1.40;99.90
36660;DHT22;22654;51.054;3.654;2023-04-03T01:47:09;1.70;99.90
36660;DHT22;22654;51.054;3.654;2023-04-03T01:49:36;2.00;99.90
36660;DHT22;22654;51.054;3.654;2023-04-03T01:52:05;2.30;99.90
36660;DHT22;22654;51.054;3.654;2023-04-03T01:54:31;2.30;99.90
36660;DHT22;22654;51.054;3.654;2023-04-03T01:56:57;2.20;99.90
36660;DHT22;22654;51.054;3.654;2023-04-03T01:59:23;1.90;99.90
36660;DHT22;22654;51.054;3.654;2023-04-03T02:01:50;1.70;99.90
36660;DHT22;22654;51.054;3.654;2023-04-03T02:04:16;1.60;99.90
36660;DHT22;22654;51.054;3.654;2023-04-03T02:06:41;1.40;99.90
36660;DHT22;22654;51.054;3.654;2023-04-03T02:09:07;1.30;99.90
36660;DHT22;22654;51.054;3.654;2023-04-03T02:11:34;1.20;99.90
36660;DHT22;22654;51.054;3.654;2023-04-03T02:14:00;1.10;99.90
36660;DHT22;22654;51.054;3.654;2023-04-03T02:16:26;1.10;99.90
36660;DHT22;22654;51.054;3.654;2023-04-03T02:18:55;1.10;99.90
36660;DHT22;22654;51.054;3.654;2023-04-03T02:21:24;1.20;99.90
36660;DHT22;22654;51.054;3.654;2023-04-03T02:23:50;1.50;99.90
36660;DHT22;22654;51.054;3.654;2023-04-03T02:26:18;1.70;99.90
36660;DHT22;22654;51.054;3.654;2023-04-03T02:28:44;1.50;99.90
36660;DHT22;22654;51.054;3.654;2023-04-03T02:31:11;1.60;99.90
36660;DHT22;22654;51.054;3.654;2023-04-03T02:33:39;1.60;99.90
36660;DHT22;22654;51.054;3.654;2023-04-03T02:36:08;1.60;99.90
36660;DHT22;22654;51.054;3.654;2023-04-03T02:38:34;1.60;99.90
36660;DHT22;22654;51.054;3.654;2023-04-03T02:41:01;1.50;99.90
36660;DHT22;22654;51.054;3.654;2023-04-03T02:43:30;1.70;99.90
36660;DHT22;22654;51.054;3.654;2023-04-03T02:45:56;1.70;99.90
36660;DHT22;22654;51.054;3.654;2023-04-03T02:48:22;1.70;99.90
36660;DHT22;22654;51.054;3.654;2023-04-03T02:50:48;1.60;99.90
36660;DHT22;22654;51.054;3.654;2023-04-03T02:53:15;2.00;99.90
36660;DHT22;22654;51.054;3.654;2023-04-03T02:55:41;2.30;99.90
36660;DHT22;22654;51.054;3.654;2023-04-03T02:58:06;2.40;99.90
36660;DHT22;22654;51.054;3.654;2023-04-03T03:00:33;2.20;99.90
36660;DHT22;22654;51.054;3.654;2023-04-03T03:02:59;2.30;99.90
36660;DHT22;22654;51.054;3.654;2023-04-03T03:05:25;2.20;99.90
36660;DHT22;22654;51.054;3.654;2023-04-03T03:07:51;2.30;99.90
36660;DHT22;22654;51.054;3.654;2023-04-03T03:10:17;2.40;99.90
36660;DHT22;22654;51.054;3.654;2023-04-03T03:12:45;2.30;99.90
36660;DHT22;22654;51.054;3.654;2023-04-03T03:15:11;2.40;99.90
36660;DHT22;22654;51.054;3.654;2023-04-03T03:17:37;2.50;99.90
36660;DHT22;22654;51.054;3.654;2023-04-03T03:20:06;2.50;99.90
36660;DHT22;22654;51.054;3.654;2023-04-03T03:22:33;2.60;99.90
36660;DHT22;22654;51.054;3.654;2023-04-03T03:24:59;2.60;99.90
36660;DHT22;22654;51.054;3.654;2023-04-03T03:27:24;2.50;99.90
36660;DHT22;22654;51.054;3.654;2023-04-03T03:29:50;2.50;99.90
36660;DHT22;22654;51.054;3.654;2023-04-03T03:32:16;2.50;99.90
36660;DHT22;22654;51.054;3.654;2023-04-03T03:34:42;2.60;99.90
36660;DHT22;22654;51.054;3.654;2023-04-03T03:37:08;2.60;99.90
36660;DHT22;22654;51.054;3.654;2023-04-03T03:39:34;2.60;99.90
36660;DHT22;22654;51.054;3.654;2023-04-03T03:42:00;2.70;99.90
36660;DHT22;22654;51.054;3.654;2023-04-03T03:44:28;2.70;99.90
36660;DHT22;22654;51.054;3.654;2023-04-03T03:46:55;2.80;99.90
36660;DHT22;22654;51.054;3.654;2023-04-03T03:49:22;2.80;99.90
36660;DHT22;22654;51.054;3.654;2023-04-03T03:51:48;2.80;99.90
36660;DHT22;22654;51.054;3.654;2023-04-03T03:54:16;2.80;99.90
36660;DHT22;22654;51.054;3.654;2023-04-03T03:56:42;2.80;99.90
36660;DHT22;22654;51.054;3.654;2023-04-03T03:59:08;2.80;99.90
36660;DHT22;22654;51.054;3.654;2023-04-03T04:01:33;2.80;99.90
36660;DHT22;22654;51.054;3.654;2023-04-03T04:04:00;2.90;99.90
36660;DHT22;22654;51.054;3.654;2023-04-03T04:06:29;3.00;99.90
36660;DHT22;22654;51.054;3.654;2023-04-03T04:08:59;3.10;99.90
36660;DHT22;22654;51.054;3.654;2023-04-03T04:11:24;3.10;99.90
36660;DHT22;22654;51.054;3.654;2023-04-03T04:13:52;3.10;99.90
36660;DHT22;22654;51.054;3.654;2023-04-03T04:16:22;3.10;99.90
36660;DHT22;22654;51.054;3.654;2023-04-03T04:18:51;2.90;99.90
36660;DHT22;22654;51.054;3.654;2023-04-03T04:21:24;2.90;99.90
36660;DHT22;22654;51.054;3.654;2023-04-03T04:23:56;2.90;99.90
36660;DHT22;22654;51.054;3.654;2023-04-03T04:26:23;3.00;99.90
36660;DHT22;22654;51.054;3.654;2023-04-03T04:28:53;3.10;99.90
36660;DHT22;22654;51.054;3.654;2023-04-03T04:31:20;2.80;99.90
36660;DHT22;22654;51.054;3.654;2023-04-03T04:33:45;3.00;99.90
36660;DHT22;22654;51.054;3.654;2023-04-03T04:36:13;2.90;99.90
36660;DHT22;22654;51.054;3.654;2023-04-03T04:38:42;2.90;99.90
36660;DHT22;22654;51.054;3.654;2023-04-03T04:41:08;3.10;99.90
36660;DHT22;22654;51.054;3.654;2023-04-03T04:43:34;3.10;99.90
36660;DHT22;22654;51.054;3.654;2023-04-03T04:46:07;3.10;99.90
36660;DHT22;22654;51.054;3.654;2023-04-03T04:48:39;3.10;99.90
36660;DHT22;22654;51.054;3.654;2023-04-03T04:51:06;3.20;99.90
36660;DHT22;22654;51.054;3.654;2023-04-03T04:53:33;3.20;99.90
36660;DHT22;22654;51.054;3.654;2023-04-03T04:55:59;3.10;99.90
36660;DHT22;22654;51.054;3.654;2023-04-03T04:58:25;3.20;99.90
36660;DHT22;22654;51.054;3.654;2023-04-03T05:00:58;3.30;99.90
36660;DHT22;22654;51.054;3.654;2023-04-03T05:03:24;3.30;99.90
36660;DHT22;22654;51.054;3.654;2023-04-03T05:05:49;3.30;99.90
36660;DHT22;22654;51.054;3.654;2023-04-03T05:08:15;3.30;99.90
36660;DHT22;22654;51.054;3.654;2023-04-03T05:10:41;3.30;99.90
36660;DHT22;22654;51.054;3.654;2023-04-03T05:13:09;3.30;99.90
36660;DHT22;22654;51.054;3.654;2023-04-03T05:15:35;3.40;99.90
36660;DHT22;22654;51.054;3.654;2023-04-03T05:18:05;3.00;99.90
36660;DHT22;22654;51.054;3.654;2023-04-03T05:20:31;3.20;99.90
36660;DHT22;22654;51.054;3.654;2023-04-03T05:22:58;3.30;99.90
36660;DHT22;22654;51.054;3.654;2023-04-03T05:25:23;3.30;99.90
36660;DHT22;22654;51.054;3.654;2023-04-03T05:27:51;3.30;99.90
36660;DHT22;22654;51.054;3.654;2023-04-03T05:30:17;3.40;99.90
36660;DHT22;22654;51.054;3.654;2023-04-03T05:32:44;3.50;99.90
36660;DHT22;22654;51.054;3.654;2023-04-03T05:35:17;3.50;99.90
36660;DHT22;22654;51.054;3.654;2023-04-03T05:37:45;3.50;99.90
36660;DHT22;22654;51.054;3.654;2023-04-03T05:40:13;3.50;99.90
36660;DHT22;22654;51.054;3.654;2023-04-03T05:42:42;3.40;99.90
36660;DHT22;22654;51.054;3.654;2023-04-03T05:45:08;3.50;99.90
36660;DHT22;22654;51.054;3.654;2023-04-03T05:47:34;3.60;99.90
36660;DHT22;22654;51.054;3.654;2023-04-03T05:50:00;3.60;99.90
36660;DHT22;22654;51.054;3.654;2023-04-03T05:54:52;3.60;99.90
36660;DHT22;22654;51.054;3.654;2023-04-03T05:57:23;3.70;99.90
36660;DHT22;22654;51.054;3.654;2023-04-03T05:59:49;3.80;99.90
36660;DHT22;22654;51.054;3.654;2023-04-03T06:02:17;3.70;99.90
36660;DHT22;22654;51.054;3.654;2023-04-03T06:04:44;3.40;99.90
36660;DHT22;22654;51.054;3.654;2023-04-03T06:07:11;3.40;99.90
36660;DHT22;22654;51.054;3.654;2023-04-03T06:09:37;3.50;99.90
36660;DHT22;22654;51.054;3.654;2023-04-03T06:12:04;3.30;99.90
36660;DHT22;22654;51.054;3.654;2023-04-03T06:14:32;3.70;99.90
36660;DHT22;22654;51.054;3.654;2023-04-03T06:16:58;4.30;99.90
36660;DHT22;22654;51.054;3.654;2023-04-03T06:19:28;5.60;99.90
36660;DHT22;22654;51.054;3.654;2023-04-03T06:21:55;7.20;99.90
36660;DHT22;22654;51.054;3.654;2023-04-03T06:24:23;8.50;99.90
36660;DHT22;22654;51.054;3.654;2023-04-03T06:26:50;9.60;99.90
36660;DHT22;22654;51.054;3.654;2023-04-03T06:29:17;10.70;99.90
36660;DHT22;22654;51.054;3.654;2023-04-03T06:31:43;12.20;99.90
36660;DHT22;22654;51.054;3.654;2023-04-03T06:34:09;13.30;99.90
36660;DHT22;22654;51.054;3.654;2023-04-03T06:36:35;14.30;99.90
36660;DHT22;22654;51.054;3.654;2023-04-03T06:39:00;15.00;99.90
36660;DHT22;22654;51.054;3.654;2023-04-03T06:41:27;14.80;99.90
36660;DHT22;22654;51.054;3.654;2023-04-03T06:43:52;14.40;99.90
36660;DHT22;22654;51.054;3.654;2023-04-03T06:46:19;13.80;99.90
36660;DHT22;22654;51.054;3.654;2023-04-03T06:48:46;13.60;99.90
36660;DHT22;22654;51.054;3.654;2023-04-03T06:51:22;12.90;99.90
36660;DHT22;22654;51.054;3.654;2023-04-03T06:53:49;12.60;99.90
36660;DHT22;22654;51.054;3.654;2023-04-03T06:56:16;12.70;99.90
36660;DHT22;22654;51.054;3.654;2023-04-03T06:58:42;12.60;99.90
36660;DHT22;22654;51.054;3.654;2023-04-03T07:01:09;12.30;99.90
36660;DHT22;22654;51.054;3.654;2023-04-03T07:03:35;12.40;99.90
36660;DHT22;22654;51.054;3.654;2023-04-03T07:06:01;13.60;99.90
36660;DHT22;22654;51.054;3.654;2023-04-03T07:08:27;14.90;99.90
36660;DHT22;22654;51.054;3.654;2023-04-03T07:10:52;15.60;97.00
36660;DHT22;22654;51.054;3.654;2023-04-03T07:13:18;15.00;97.00
36660;DHT22;22654;51.054;3.654;2023-04-03T07:15:44;13.90;98.60
36660;DHT22;22654;51.054;3.654;2023-04-03T07:18:10;13.50;98.20
36660;DHT22;22654;51.054;3.654;2023-04-03T07:20:36;13.00;99.00
36660;DHT22;22654;51.054;3.654;2023-04-03T07:23:02;13.00;99.70
36660;DHT22;22654;51.054;3.654;2023-04-03T07:25:28;12.70;99.90
36660;DHT22;22654;51.054;3.654;2023-04-03T07:27:54;11.90;99.90
36660;DHT22;22654;51.054;3.654;2023-04-03T07:30:20;11.20;99.90
36660;DHT22;22654;51.054;3.654;2023-04-03T07:32:46;10.20;99.90
36660;DHT22;22654;51.054;3.654;2023-04-03T07:35:12;9.80;99.90
36660;DHT22;22654;51.054;3.654;2023-04-03T07:37:38;9.60;99.90
36660;DHT22;22654;51.054;3.654;2023-04-03T07:40:06;8.80;99.90
36660;DHT22;22654;51.054;3.654;2023-04-03T07:42:32;8.50;99.90
36660;DHT22;22654;51.054;3.654;2023-04-03T07:44:57;8.50;99.90
36660;DHT22;22654;51.054;3.654;2023-04-03T07:47:23;8.00;99.90
36660;DHT22;22654;51.054;3.654;2023-04-03T07:49:49;7.70;99.90
36660;DHT22;22654;51.054;3.654;2023-04-03T07:52:18;7.40;99.90
36660;DHT22;22654;51.054;3.654;2023-04-03T07:54:44;7.30;99.90
36660;DHT22;22654;51.054;3.654;2023-04-03T07:57:09;7.30;99.90
36660;DHT22;22654;51.054;3.654;2023-04-03T07:59:53;7.30;99.90
36660;DHT22;22654;51.054;3.654;2023-04-03T08:02:19;7.20;99.90
36660;DHT22;22654;51.054;3.654;2023-04-03T08:04:45;7.20;99.90
36660;DHT22;22654;51.054;3.654;2023-04-03T08:07:11;7.40;99.90
36660;DHT22;22654;51.054;3.654;2023-04-03T08:09:36;7.40;99.90
36660;DHT22;22654;51.054;3.654;2023-04-03T08:12:02;7.40;99.90
36660;DHT22;22654;51.054;3.654;2023-04-03T08:14:30;7.50;99.90
36660;DHT22;22654;51.054;3.654;2023-04-03T08:16:56;7.60;99.90
36660;DHT22;22654;51.054;3.654;2023-04-03T08:19:22;7.40;99.90
36660;DHT22;22654;51.054;3.654;2023-04-03T08:21:47;7.30;99.90
36660;DHT22;22654;51.054;3.654;2023-04-03T08:24:13;7.30;99.90
36660;DHT22;22654;51.054;3.654;2023-04-03T08:26:39;7.30;99.90
36660;DHT22;22654;51.054;3.654;2023-04-03T08:29:05;7.40;99.90
36660;DHT22;22654;51.054;3.654;2023-04-03T08:31:30;7.40;99.90
36660;DHT22;22654;51.054;3.654;2023-04-03T08:33:56;7.50;99.90
36660;DHT22;22654;51.054;3.654;2023-04-03T08:36:24;8.10;99.90
36660;DHT22;22654;51.054;3.654;2023-04-03T08:38:50;8.50;99.90
36660;DHT22;22654;51.054;3.654;2023-04-03T08:43:47;10.00;99.90
36660;DHT22;22654;51.054;3.654;2023-04-03T08:46:17;9.80;99.90
36660;DHT22;22654;51.054;3.654;2023-04-03T08:48:46;9.30;99.90
36660;DHT22;22654;51.054;3.654;2023-04-03T08:51:14;9.20;99.90
36660;DHT22;22654;51.054;3.654;2023-04-03T08:53:42;8.70;99.90
36660;DHT22;22654;51.054;3.654;2023-04-03T08:56:09;8.10;99.90
36660;DHT22;22654;51.054;3.654;2023-04-03T08:58:41;8.10;99.90
36660;DHT22;22654;51.054;3.654;2023-04-03T09:01:20;8.30;99.90
36660;DHT22;22654;51.054;3.654;2023-04-03T09:03:46;8.20;99.90
36660;DHT22;22654;51.054;3.654;2023-04-03T09:06:20;8.30;99.90
36660;DHT22;22654;51.054;3.654;2023-04-03T09:11:21;8.30;99.90
36660;DHT22;22654;51.054;3.654;2023-04-03T09:18:57;8.20;99.90
36660;DHT22;22654;51.054;3.654;2023-04-03T09:21:26;8.10;99.90
36660;DHT22;22654;51.054;3.654;2023-04-03T09:23:58;8.30;99.90
36660;DHT22;22654;51.054;3.654;2023-04-03T09:28:52;8.10;99.90
36660;DHT22;22654;51.054;3.654;2023-04-03T09:31:23;8.00;99.90
36660;DHT22;22654;51.054;3.654;2023-04-03T09:33:50;8.00;99.90
36660;DHT22;22654;51.054;3.654;2023-04-03T09:39:05;8.10;99.90
36660;DHT22;22654;51.054;3.654;2023-04-03T09:41:31;8.10;99.90
36660;DHT22;22654;51.054;3.654;2023-04-03T09:43:58;8.10;99.90
36660;DHT22;22654;51.054;3.654;2023-04-03T09:46:31;8.00;99.90
36660;DHT22;22654;51.054;3.654;2023-04-03T09:48:58;8.20;99.90
36660;DHT22;22654;51.054;3.654;2023-04-03T09:51:25;8.30;99.90
36660;DHT22;22654;51.054;3.654;2023-04-03T09:53:51;8.30;99.90
36660;DHT22;22654;51.054;3.654;2023-04-03T09:56:22;8.20;99.90
36660;DHT22;22654;51.054;3.654;2023-04-03T10:01:39;8.30;99.90
36660;DHT22;22654;51.054;3.654;2023-04-03T10:04:10;8.40;99.90
36660;DHT22;22654;51.054;3.654;2023-04-03T10:06:38;8.70;99.90
36660;DHT22;22654;51.054;3.654;2023-04-03T10:14:22;8.70;99.90
36660;DHT22;22654;51.054;3.654;2023-04-03T10:16:51;8.70;99.90
36660;DHT22;22654;51.054;3.654;2023-04-03T10:24:25;8.90;99.90
36660;DHT22;22654;51.054;3.654;2023-04-03T10:29:28;8.90;99.90
36660;DHT22;22654;51.054;3.654;2023-04-03T10:34:28;9.10;99.90
36660;DHT22;22654;51.054;3.654;2023-04-03T10:46:52;9.80;99.90
36660;DHT22;22654;51.054;3.654;2023-04-03T10:51:45;9.30;99.90
36660;DHT22;22654;51.054;3.654;2023-04-03T10:54:13;9.20;99.90
36660;DHT22;22654;51.054;3.654;2023-04-03T10:56:47;9.40;99.90
36660;DHT22;22654;51.054;3.654;2023-04-03T11:01:48;9.20;99.90
36660;DHT22;22654;51.054;3.654;2023-04-03T11:04:14;9.30;99.90
36660;DHT22;22654;51.054;3.654;2023-04-03T11:06:46;9.20;99.90
36660;DHT22;22654;51.054;3.654;2023-04-03T11:09:18;9.40;99.90
36660;DHT22;22654;51.054;3.654;2023-04-03T11:11:45;9.80;99.90
36660;DHT22;22654;51.054;3.654;2023-04-03T11:14:15;9.80;99.90
36660;DHT22;22654;51.054;3.654;2023-04-03T11:16:45;10.00;99.90
36660;DHT22;22654;51.054;3.654;2023-04-03T11:19:15;10.10;99.90
36660;DHT22;22654;51.054;3.654;2023-04-03T11:24:32;10.00;99.90
36660;DHT22;22654;51.054;3.654;2023-04-03T11:26:58;10.00;99.90
36660;DHT22;22654;51.054;3.654;2023-04-03T11:29:28;10.30;99.90
36660;DHT22;22654;51.054;3.654;2023-04-03T11:36:59;10.80;99.90
36660;DHT22;22654;51.054;3.654;2023-04-03T11:39:27;10.70;99.90
36660;DHT22;22654;51.054;3.654;2023-04-03T11:41:53;10.70;99.90
36660;DHT22;22654;51.054;3.654;2023-04-03T11:44:28;10.60;99.10
36660;DHT22;22654;51.054;3.654;2023-04-03T11:46:57;10.40;99.60
36660;DHT22;22654;51.054;3.654;2023-04-03T11:52:11;10.40;99.80
36660;DHT22;22654;51.054;3.654;2023-04-03T11:59:50;10.70;97.90
36660;DHT22;22654;51.054;3.654;2023-04-03T12:02:36;10.60;96.60
36660;DHT22;22654;51.054;3.654;2023-04-03T12:05:25;10.60;95.90
36660;DHT22;22654;51.054;3.654;2023-04-03T12:10:34;11.00;96.20
36660;DHT22;22654;51.054;3.654;2023-04-03T12:13:00;11.10;98.60
36660;DHT22;22654;51.054;3.654;2023-04-03T12:20:56;11.20;97.70
36660;DHT22;22654;51.054;3.654;2023-04-03T12:23:27;11.40;97.10
36660;DHT22;22654;51.054;3.654;2023-04-03T12:25:59;11.40;98.60
36660;DHT22;22654;51.054;3.654;2023-04-03T12:28:26;11.30;98.20
36660;DHT22;22654;51.054;3.654;2023-04-03T12:30:52;11.10;97.80
36660;DHT22;22654;51.054;3.654;2023-04-03T12:33:20;10.90;98.50
36660;DHT22;22654;51.054;3.654;2023-04-03T12:35:55;11.00;97.90
36660;DHT22;22654;51.054;3.654;2023-04-03T12:43:53;10.80;97.90
36660;DHT22;22654;51.054;3.654;2023-04-03T12:46:23;10.90;97.90
36660;DHT22;22654;51.054;3.654;2023-04-03T12:51:20;10.80;97.10
36660;DHT22;22654;51.054;3.654;2023-04-03T12:53:48;11.00;97.40
36660;DHT22;22654;51.054;3.654;2023-04-03T12:56:27;11.20;97.60
36660;DHT22;22654;51.054;3.654;2023-04-03T12:58:57;11.40;97.50
36660;DHT22;22654;51.054;3.654;2023-04-03T13:01:38;11.20;97.20
36660;DHT22;22654;51.054;3.654;2023-04-03T13:04:04;11.10;96.30
36660;DHT22;22654;51.054;3.654;2023-04-03T13:06:31;11.10;96.70
36660;DHT22;22654;51.054;3.654;2023-04-03T13:09:03;11.10;96.60
36660;DHT22;22654;51.054;3.654;2023-04-03T13:11:36;10.90;96.80
36660;DHT22;22654;51.054;3.654;2023-04-03T13:14:05;11.20;96.20
36660;DHT22;22654;51.054;3.654;2023-04-03T13:16:31;11.20;96.60
36660;DHT22;22654;51.054;3.654;2023-04-03T13:18:58;11.40;95.60
36660;DHT22;22654;51.054;3.654;2023-04-03T13:21:32;11.30;95.50
36660;DHT22;22654;51.054;3.654;2023-04-03T13:24:00;11.20;94.60
36660;DHT22;22654;51.054;3.654;2023-04-03T13:26:27;11.10;95.70
36660;DHT22;22654;51.054;3.654;2023-04-03T13:28:58;11.30;94.10
36660;DHT22;22654;51.054;3.654;2023-04-03T13:31:25;11.40;94.80
36660;DHT22;22654;51.054;3.654;2023-04-03T13:36:35;11.20;95.00
36660;DHT22;22654;51.054;3.654;2023-04-03T13:43:56;11.70;94.20
36660;DHT22;22654;51.054;3.654;2023-04-03T13:46:23;11.70;93.70
36660;DHT22;22654;51.054;3.654;2023-04-03T13:48:50;11.50;93.90
36660;DHT22;22654;51.054;3.654;2023-04-03T13:51:24;11.30;92.80
36660;DHT22;22654;51.054;3.654;2023-04-03T13:53:53;11.30;91.90
36660;DHT22;22654;51.054;3.654;2023-04-03T13:56:40;11.30;91.80
36660;DHT22;22654;51.054;3.654;2023-04-03T14:01:49;11.50;91.10
36660;DHT22;22654;51.054;3.654;2023-04-03T14:04:19;11.90;90.80
36660;DHT22;22654;51.054;3.654;2023-04-03T14:06:45;12.10;90.10
36660;DHT22;22654;51.054;3.654;2023-04-03T14:09:11;12.10;90.20
36660;DHT22;22654;51.054;3.654;2023-04-03T14:11:37;12.00;90.20
36660;DHT22;22654;51.054;3.654;2023-04-03T14:14:09;12.00;87.90
36660;DHT22;22654;51.054;3.654;2023-04-03T14:16:38;11.80;88.10
36660;DHT22;22654;51.054;3.654;2023-04-03T14:19:04;12.00;88.50
36660;DHT22;22654;51.054;3.654;2023-04-03T14:21:29;11.90;90.70
36660;DHT22;22654;51.054;3.654;2023-04-03T14:23:59;11.90;90.70
36660;DHT22;22654;51.054;3.654;2023-04-03T14:26:25;12.00;88.90
36660;DHT22;22654;51.054;3.654;2023-04-03T14:28:53;12.10;87.30
36660;DHT22;22654;51.054;3.654;2023-04-03T14:31:20;11.90;87.20
36660;DHT22;22654;51.054;3.654;2023-04-03T14:33:46;11.80;87.70
36660;DHT22;22654;51.054;3.654;2023-04-03T14:36:16;11.60;86.80
36660;DHT22;22654;51.054;3.654;2023-04-03T14:38:43;11.80;87.90
36660;DHT22;22654;51.054;3.654;2023-04-03T14:41:13;12.10;87.80
36660;DHT22;22654;51.054;3.654;2023-04-03T14:43:40;11.70;86.20
36660;DHT22;22654;51.054;3.654;2023-04-03T14:46:09;11.50;86.80
36660;DHT22;22654;51.054;3.654;2023-04-03T14:48:36;11.40;89.40
36660;DHT22;22654;51.054;3.654;2023-04-03T14:51:05;11.80;86.90
36660;DHT22;22654;51.054;3.654;2023-04-03T14:53:30;11.90;87.50
36660;DHT22;22654;51.054;3.654;2023-04-03T14:55:58;11.70;87.50
36660;DHT22;22654;51.054;3.654;2023-04-03T14:58:26;11.40;87.60
36660;DHT22;22654;51.054;3.654;2023-04-03T15:00:52;11.70;90.40
36660;DHT22;22654;51.054;3.654;2023-04-03T15:03:19;11.50;87.70
36660;DHT22;22654;51.054;3.654;2023-04-03T15:05:52;11.50;84.60
36660;DHT22;22654;51.054;3.654;2023-04-03T15:08:23;11.40;84.10
36660;DHT22;22654;51.054;3.654;2023-04-03T15:10:50;11.10;84.80
36660;DHT22;22654;51.054;3.654;2023-04-03T15:13:18;11.40;87.20
36660;DHT22;22654;51.054;3.654;2023-04-03T15:15:44;11.50;84.90
36660;DHT22;22654;51.054;3.654;2023-04-03T15:18:12;11.30;84.20
36660;DHT22;22654;51.054;3.654;2023-04-03T15:20:39;11.10;85.10
36660;DHT22;22654;51.054;3.654;2023-04-03T15:23:05;11.20;84.30
36660;DHT22;22654;51.054;3.654;2023-04-03T15:25:31;11.20;86.50
36660;DHT22;22654;51.054;3.654;2023-04-03T15:27:57;11.20;85.70
36660;DHT22;22654;51.054;3.654;2023-04-03T15:30:23;11.10;85.10
36660;DHT22;22654;51.054;3.654;2023-04-03T15:32:49;11.20;86.50
36660;DHT22;22654;51.054;3.654;2023-04-03T15:35:15;11.20;86.50
36660;DHT22;22654;51.054;3.654;2023-04-03T15:37:41;11.20;84.90
36660;DHT22;22654;51.054;3.654;2023-04-03T15:40:07;11.40;86.70
36660;DHT22;22654;51.054;3.654;2023-04-03T15:42:33;11.60;84.80
36660;DHT22;22654;51.054;3.654;2023-04-03T15:45:01;11.60;85.20
36660;DHT22;22654;51.054;3.654;2023-04-03T15:47:27;11.80;86.00
36660;DHT22;22654;51.054;3.654;2023-04-03T15:49:55;11.80;84.50
36660;DHT22;22654;51.054;3.654;2023-04-03T15:52:21;11.90;85.40
36660;DHT22;22654;51.054;3.654;2023-04-03T15:54:47;12.10;95.40
36660;DHT22;22654;51.054;3.654;2023-04-03T15:57:12;12.60;84.60
36660;DHT22;22654;51.054;3.654;2023-04-03T15:59:38;12.50;87.30
36660;DHT22;22654;51.054;3.654;2023-04-03T16:02:05;12.80;87.60
36660;DHT22;22654;51.054;3.654;2023-04-03T16:04:35;12.70;83.40
36660;DHT22;22654;51.054;3.654;2023-04-03T16:07:01;12.20;83.70
36660;DHT22;22654;51.054;3.654;2023-04-03T16:09:27;11.80;83.90
36660;DHT22;22654;51.054;3.654;2023-04-03T16:11:53;11.80;83.50
36660;DHT22;22654;51.054;3.654;2023-04-03T16:14:19;11.60;85.70
36660;DHT22;22654;51.054;3.654;2023-04-03T16:16:44;11.30;84.10
36660;DHT22;22654;51.054;3.654;2023-04-03T16:19:10;11.20;85.40
36660;DHT22;22654;51.054;3.654;2023-04-03T16:21:36;11.20;84.20
36660;DHT22;22654;51.054;3.654;2023-04-03T16:24:02;11.20;84.20
36660;DHT22;22654;51.054;3.654;2023-04-03T16:26:28;11.40;83.80
36660;DHT22;22654;51.054;3.654;2023-04-03T16:28:53;11.30;85.20
36660;DHT22;22654;51.054;3.654;2023-04-03T16:31:20;11.30;84.50
36660;DHT22;22654;51.054;3.654;2023-04-03T16:33:46;11.20;85.40
36660;DHT22;22654;51.054;3.654;2023-04-03T16:36:11;11.40;85.20
36660;DHT22;22654;51.054;3.654;2023-04-03T16:38:37;11.60;84.40
36660;DHT22;22654;51.054;3.654;2023-04-03T16:41:03;11.40;82.80
36660;DHT22;22654;51.054;3.654;2023-04-03T16:43:30;11.20;85.00
36660;DHT22;22654;51.054;3.654;2023-04-03T16:45:57;11.00;85.00
36660;DHT22;22654;51.054;3.654;2023-04-03T16:48:22;11.10;85.40
36660;DHT22;22654;51.054;3.654;2023-04-03T16:50:48;11.20;85.40
36660;DHT22;22654;51.054;3.654;2023-04-03T16:53:16;11.30;84.50
36660;DHT22;22654;51.054;3.654;2023-04-03T16:55:42;11.40;82.80
36660;DHT22;22654;51.054;3.654;2023-04-03T16:58:11;11.10;82.60
36660;DHT22;22654;51.054;3.654;2023-04-03T17:00:37;11.30;82.90
36660;DHT22;22654;51.054;3.654;2023-04-03T17:03:03;11.20;81.40
36660;DHT22;22654;51.054;3.654;2023-04-03T17:05:29;11.00;83.50
36660;DHT22;22654;51.054;3.654;2023-04-03T17:07:54;10.70;83.50
36660;DHT22;22654;51.054;3.654;2023-04-03T17:10:20;10.80;83.70
36660;DHT22;22654;51.054;3.654;2023-04-03T17:12:46;10.90;84.40
36660;DHT22;22654;51.054;3.654;2023-04-03T17:15:12;10.90;83.80
36660;DHT22;22654;51.054;3.654;2023-04-03T17:17:41;10.60;84.00
36660;DHT22;22654;51.054;3.654;2023-04-03T17:20:07;10.70;84.00
36660;DHT22;22654;51.054;3.654;2023-04-03T17:22:37;10.80;84.70